createdAt,value
2022-08-19T00:01:42.112Z,101337.59
2022-08-19T00:04:12.474Z,101331.41
2022-08-19T00:06:40.439Z,101326.16
2022-08-19T00:09:11.143Z,101326.25
2022-08-19T00:11:38.798Z,101321.84
2022-08-19T00:14:08.237Z,101334.34
2022-08-19T00:16:34.767Z,101328.22
2022-08-19T00:19:01.183Z,101336.31
2022-08-19T00:21:28.308Z,101341.66
2022-08-19T00:23:58.976Z,101345.31
2022-08-19T00:26:27.032Z,101342.66
2022-08-19T00:28:53.456Z,101346.25
2022-08-19T00:31:20.442Z,101334.66
2022-08-19T00:33:46.836Z,101330.22
2022-08-19T00:36:13.482Z,101329.31
2022-08-19T00:38:44.196Z,101323.13
2022-08-19T00:41:14.486Z,101327.53
2022-08-19T00:43:42.131Z,101327.63
2022-08-19T00:46:08.951Z,101320.63
2022-08-19T00:48:37.000Z,101326.94
2022-08-19T00:51:05.284Z,101323.50
2022-08-19T00:53:34.287Z,101322.75
2022-08-19T00:56:02.139Z,101329.84
2022-08-19T00:58:33.341Z,101326.34
2022-08-19T01:01:00.543Z,101325.53
2022-08-19T01:03:27.011Z,101332.66
2022-08-19T01:05:55.586Z,101328.28
2022-08-19T01:08:23.125Z,101328.34
2022-08-19T01:11:06.327Z,101326.69
2022-08-19T01:13:44.609Z,101333.84
2022-08-19T01:16:22.479Z,101332.16
2022-08-19T01:18:49.990Z,101332.16
2022-08-19T01:21:25.338Z,101324.22
2022-08-19T01:23:51.954Z,101326.97
2022-08-19T01:26:22.394Z,101325.16
2022-08-19T01:28:51.883Z,101325.97
2022-08-19T01:31:26.734Z,101333.09
2022-08-19T01:33:57.193Z,101329.47
2022-08-19T01:36:29.132Z,101337.41
2022-08-19T01:38:56.166Z,101331.22
2022-08-19T01:41:24.406Z,101332.09
2022-08-19T01:44:09.985Z,101326.91
2022-08-19T01:46:44.461Z,101325.09
2022-08-19T01:49:11.452Z,101336.59
2022-08-19T01:51:40.302Z,101344.59
2022-08-19T01:54:08.207Z,101342.81
2022-08-19T01:56:34.770Z,101349.94
2022-08-19T01:59:04.768Z,101338.50
2022-08-19T02:01:33.371Z,101343.91
2022-08-19T02:04:01.496Z,101347.56
2022-08-19T02:06:29.655Z,101344.09
2022-08-19T02:08:59.608Z,101345.03
2022-08-19T02:11:31.468Z,101344.19
2022-08-19T02:13:58.455Z,101342.50
2022-08-19T02:16:29.752Z,101339.84
2022-08-19T02:18:56.141Z,101341.66
2022-08-19T02:21:24.387Z,101346.09
2022-08-19T02:23:51.667Z,101344.25
2022-08-19T02:26:19.564Z,101339.78
2022-08-19T02:28:46.125Z,101337.06
2022-08-19T02:31:19.418Z,101345.97
2022-08-19T02:33:47.313Z,101337.13
2022-08-19T02:36:20.598Z,101341.59
2022-08-19T02:38:55.092Z,101350.44
2022-08-19T02:41:26.874Z,101352.31
2022-08-19T02:44:29.599Z,101354.09
2022-08-19T02:46:49.069Z,101339.13
2022-08-19T02:49:18.827Z,101337.41
2022-08-19T02:51:46.791Z,101343.66
2022-08-19T02:54:14.317Z,101339.28
2022-08-19T02:56:42.342Z,101336.72
2022-08-19T02:59:11.896Z,101329.75
2022-08-19T03:01:43.639Z,101323.56
2022-08-19T03:04:14.181Z,101324.56
2022-08-19T03:06:43.557Z,101324.63
2022-08-19T03:09:11.042Z,101324.69
2022-08-19T03:11:38.398Z,101321.19
2022-08-19T03:14:07.355Z,101328.28
2022-08-19T03:16:40.602Z,101326.63
2022-08-19T03:19:07.216Z,101329.28
2022-08-19T03:21:35.324Z,101328.41
2022-08-19T03:24:09.474Z,101326.66
2022-08-19T03:26:40.287Z,101325.75
2022-08-19T03:29:07.525Z,101316.06
2022-08-19T03:31:43.871Z,101313.47
2022-08-19T03:34:28.281Z,101315.28
2022-08-19T03:36:56.394Z,101314.47
2022-08-19T03:39:24.867Z,101313.53
2022-08-19T03:42:31.708Z,101312.72
2022-08-19T03:44:46.799Z,101310.13
2022-08-19T03:47:19.436Z,101303.09
2022-08-19T03:49:46.264Z,101319.97
2022-08-19T03:52:14.298Z,101321.75
2022-08-19T03:54:40.938Z,101323.63
2022-08-19T03:57:07.749Z,101321.00
2022-08-19T03:59:36.589Z,101321.91
2022-08-19T04:02:10.057Z,101321.91
2022-08-19T04:04:38.452Z,101325.41
2022-08-19T04:07:05.628Z,101320.09
2022-08-19T04:09:34.714Z,101326.31
2022-08-19T04:12:01.172Z,101330.72
2022-08-19T04:14:31.115Z,101325.34
2022-08-19T04:16:59.821Z,101334.19
2022-08-19T04:19:29.660Z,101318.25
2022-08-19T04:21:56.545Z,101312.09
2022-08-19T04:24:24.270Z,101316.56
2022-08-19T04:26:51.747Z,101315.69
2022-08-19T04:29:22.772Z,101305.94
2022-08-19T04:31:50.016Z,101303.31
2022-08-19T04:34:18.456Z,101306.00
2022-08-19T04:36:52.060Z,101303.34
2022-08-19T04:40:10.813Z,101302.50
2022-08-19T04:42:40.514Z,101306.03
2022-08-19T04:45:13.227Z,101309.63
2022-08-19T04:47:46.877Z,101313.22
2022-08-19T04:50:21.112Z,101317.66
2022-08-19T04:52:47.550Z,101319.50
2022-08-19T04:55:17.679Z,101323.03
2022-08-19T04:57:44.117Z,101322.22
2022-08-19T05:00:12.018Z,101324.88
2022-08-19T05:02:42.720Z,101329.28
2022-08-19T05:05:09.408Z,101331.91
2022-08-19T05:07:36.802Z,101337.19
2022-08-19T05:10:05.728Z,101340.66
2022-08-19T05:12:32.244Z,101341.47
2022-08-19T05:14:59.376Z,101347.59
2022-08-19T05:17:29.632Z,101346.56
2022-08-19T05:20:17.432Z,101351.72
2022-08-19T05:22:45.803Z,101339.13
2022-08-19T05:25:15.913Z,101346.06
2022-08-19T05:27:43.267Z,101339.69
2022-08-19T05:30:11.642Z,101333.34
2022-08-19T05:32:39.211Z,101324.22
2022-08-19T05:35:07.579Z,101323.97
2022-08-19T05:37:34.239Z,101333.25
2022-08-19T05:40:00.851Z,101336.28
2022-08-19T05:42:27.393Z,101329.50
2022-08-19T05:44:54.519Z,101335.94
2022-08-19T05:47:22.503Z,101335.59
2022-08-19T05:49:51.194Z,101337.25
2022-08-19T05:52:18.850Z,101332.78
2022-08-19T05:57:29.823Z,101325.97
2022-08-19T05:59:58.864Z,101315.56
2022-08-19T06:02:32.009Z,101319.91
2022-08-19T06:04:58.688Z,101315.56
2022-08-19T06:07:25.489Z,101321.88
2022-08-19T06:09:58.914Z,101324.16
2022-08-19T06:12:39.205Z,101324.06
2022-08-19T06:15:15.449Z,101325.06
2022-08-19T06:17:45.115Z,101326.25
2022-08-19T06:20:15.042Z,101326.69
2022-08-19T06:22:43.772Z,101334.28
2022-08-19T06:25:11.498Z,101327.63
2022-08-19T06:27:48.298Z,101326.22
2022-08-19T06:30:25.261Z,101321.19
2022-08-19T06:32:51.902Z,101318.72
2022-08-19T06:35:19.790Z,101320.69
2022-08-19T06:37:46.352Z,101319.88
2022-08-19T06:40:13.448Z,101329.75
2022-08-19T06:42:44.447Z,101336.06
2022-08-19T06:45:21.451Z,101336.97
2022-08-19T06:47:55.307Z,101329.22
2022-08-19T06:50:21.900Z,101334.56
2022-08-19T06:52:51.624Z,101333.69
2022-08-19T06:55:19.757Z,101338.19
2022-08-19T06:57:47.375Z,101332.94
2022-08-19T07:00:15.085Z,101336.44
2022-08-19T07:02:49.732Z,101340.91
2022-08-19T07:05:22.157Z,101343.69
2022-08-19T07:07:48.719Z,101338.38
2022-08-19T07:10:17.418Z,101338.38
2022-08-19T07:12:43.837Z,101346.44
2022-08-19T07:15:11.756Z,101349.13
2022-08-19T07:17:40.178Z,101351.81
2022-08-19T07:20:09.390Z,101354.53
2022-08-19T07:22:38.445Z,101360.75
2022-08-19T07:25:07.221Z,101364.38
2022-08-19T07:27:34.965Z,101362.69
2022-08-19T07:30:12.270Z,101369.00
2022-08-19T07:32:42.737Z,101376.09
2022-08-19T07:35:11.491Z,101367.03
2022-08-19T07:37:49.821Z,101371.44
2022-08-19T07:40:18.369Z,101366.09
2022-08-19T07:42:49.239Z,101371.41
2022-08-19T07:45:17.948Z,101359.63
2022-08-19T07:47:50.060Z,101356.84
2022-08-19T07:50:20.274Z,101366.47
2022-08-19T07:52:48.900Z,101367.22
2022-08-19T07:55:41.840Z,101360.84
2022-08-19T07:58:05.861Z,101368.78
2022-08-19T08:00:32.820Z,101370.44
2022-08-19T08:02:59.230Z,101371.16
2022-08-19T08:05:50.172Z,101379.06
2022-08-19T08:08:44.229Z,101379.06
2022-08-19T08:11:16.206Z,101378.22
2022-08-19T08:13:44.377Z,101379.94
2022-08-19T08:16:19.871Z,101380.00
2022-08-19T08:18:50.724Z,101387.06
2022-08-19T08:21:19.818Z,101385.25
2022-08-19T08:23:46.432Z,101396.72
2022-08-19T08:26:16.326Z,101400.06
2022-08-19T08:28:47.879Z,101401.59
2022-08-19T08:31:16.300Z,101396.06
2022-08-19T08:33:50.222Z,101391.47
2022-08-19T08:36:17.249Z,101389.50
2022-08-19T08:38:47.556Z,101396.25
2022-08-19T08:41:28.443Z,101397.81
2022-08-19T08:44:09.692Z,101392.31
2022-08-19T08:46:52.738Z,101395.75
2022-08-19T08:49:46.355Z,101396.50
2022-08-19T08:52:25.793Z,101407.81
2022-08-19T08:55:03.295Z,101401.22
2022-08-19T08:57:52.074Z,101396.38
2022-08-19T09:00:24.994Z,101399.69
2022-08-19T09:02:51.677Z,101406.78
2022-08-19T09:05:22.705Z,101401.28
2022-08-19T09:08:09.771Z,101394.84
2022-08-19T09:10:47.132Z,101392.00
2022-08-19T09:13:25.480Z,101389.94
2022-08-19T09:15:59.345Z,101396.06
2022-08-19T09:18:34.296Z,101393.13
2022-08-19T09:21:01.124Z,101396.13
2022-08-19T09:23:27.506Z,101401.84
2022-08-19T09:25:54.309Z,101402.38
2022-08-19T09:28:32.624Z,101410.13
2022-08-19T09:31:08.197Z,101407.50
2022-08-19T09:33:34.892Z,101404.31
2022-08-19T09:36:09.480Z,101401.44
2022-08-19T09:38:43.696Z,101410.38
2022-08-19T09:41:18.102Z,101407.00
2022-08-19T09:43:53.120Z,101410.75
2022-08-19T09:46:22.885Z,101409.69
2022-08-19T09:48:52.310Z,101413.13
2022-08-19T09:51:25.215Z,101412.66
2022-08-19T09:53:55.088Z,101410.56
2022-08-19T09:56:23.527Z,101413.91
2022-08-19T09:58:51.730Z,101409.88
2022-08-19T10:01:27.234Z,101404.84
2022-08-19T10:03:59.888Z,101405.75
2022-08-19T10:06:45.941Z,101406.91
2022-08-19T10:09:15.649Z,101406.09
2022-08-19T10:11:54.679Z,101405.88
2022-08-19T10:14:24.564Z,101396.03
2022-08-19T10:16:52.766Z,101398.91
2022-08-19T10:19:26.024Z,101398.03
2022-08-19T10:21:53.524Z,101398.38
2022-08-19T10:24:21.475Z,101401.09
2022-08-19T10:26:56.013Z,101400.31
2022-08-19T10:29:31.809Z,101395.28
2022-08-19T10:32:09.794Z,101394.25
2022-08-19T10:34:48.244Z,101381.38
2022-08-19T10:37:23.706Z,101390.25
2022-08-19T10:39:51.345Z,101389.56
2022-08-19T10:42:27.707Z,101390.09
2022-08-19T10:44:54.148Z,101393.16
2022-08-19T10:47:25.911Z,101387.00
2022-08-19T10:50:16.585Z,101380.47
2022-08-19T10:52:49.640Z,101387.22
2022-08-19T10:55:41.342Z,101380.59
2022-08-19T10:58:14.121Z,101385.84
2022-08-19T11:00:44.063Z,101381.03
2022-08-19T11:03:12.526Z,101383.56
2022-08-19T11:05:40.453Z,101378.06
2022-08-19T11:08:23.795Z,101384.50
2022-08-19T11:10:54.486Z,101378.53
2022-08-19T11:13:21.128Z,101376.69
2022-08-19T11:15:48.302Z,101383.00
2022-08-19T11:18:14.703Z,101386.81
2022-08-19T11:20:41.208Z,101389.53
2022-08-19T11:23:08.013Z,101374.28
2022-08-19T11:25:35.447Z,101385.66
2022-08-19T11:28:01.964Z,101383.88
2022-08-19T11:30:28.832Z,101379.31
2022-08-19T11:32:57.679Z,101371.25
2022-08-19T11:35:27.063Z,101373.03
2022-08-19T11:37:53.633Z,101368.09
2022-08-19T11:40:20.313Z,101375.59
2022-08-19T11:42:56.434Z,101377.81
2022-08-19T11:45:28.131Z,101375.19
2022-08-19T11:47:55.395Z,101380.47
2022-08-19T11:50:24.263Z,101378.44
2022-08-19T11:52:54.968Z,101383.75
2022-08-19T11:55:21.904Z,101388.44
2022-08-19T11:57:48.400Z,101394.47
2022-08-19T12:00:15.729Z,101398.81
2022-08-19T12:02:43.516Z,101406.75
2022-08-19T12:05:12.679Z,101403.88
2022-08-19T12:07:40.543Z,101402.50
2022-08-19T12:10:07.370Z,101403.97
2022-08-19T12:12:34.663Z,101408.94
2022-08-19T12:15:01.040Z,101408.38
2022-08-19T12:17:28.155Z,101408.50
2022-08-19T12:19:55.394Z,101411.59
2022-08-19T12:22:22.297Z,101417.97
2022-08-19T12:24:51.632Z,101416.16
2022-08-19T12:27:25.480Z,101418.97
2022-08-19T12:30:02.696Z,101420.75
2022-08-19T12:32:29.139Z,101413.47
2022-08-19T12:34:55.562Z,101412.00
2022-08-19T12:37:22.182Z,101399.84
2022-08-19T12:39:48.633Z,101399.38
2022-08-19T12:42:15.773Z,101391.66
2022-08-19T12:44:43.842Z,101387.66
2022-08-19T12:47:12.804Z,101394.13
2022-08-19T12:49:55.268Z,101392.69
2022-08-19T12:52:26.793Z,101391.78
2022-08-19T12:54:55.608Z,101391.69
2022-08-19T12:57:32.592Z,101399.47
2022-08-19T13:00:12.466Z,101393.16
2022-08-19T13:02:41.580Z,101386.31
2022-08-19T13:05:12.012Z,101388.19
2022-08-19T13:07:40.577Z,101377.63
2022-08-19T13:10:09.942Z,101384.03
2022-08-19T13:12:36.878Z,101377.97
2022-08-19T13:15:03.675Z,101374.53
2022-08-19T13:17:39.122Z,101376.19
2022-08-19T13:20:16.453Z,101377.28
2022-08-19T13:22:46.771Z,101382.84
2022-08-19T13:25:14.450Z,101375.00
2022-08-19T13:27:43.811Z,101382.09
2022-08-19T13:30:31.168Z,101381.75
2022-08-19T13:33:18.052Z,101380.50
2022-08-19T13:35:58.147Z,101375.50
2022-08-19T13:38:27.111Z,101373.97
2022-08-19T13:40:57.505Z,101374.16
2022-08-19T13:43:27.187Z,101369.78
2022-08-19T13:45:56.587Z,101368.56
2022-08-19T13:48:24.438Z,101364.09
2022-08-19T13:50:50.971Z,101372.06
2022-08-19T13:53:18.287Z,101366.03
2022-08-19T13:55:45.374Z,101372.13
2022-08-19T13:58:12.327Z,101369.06
2022-08-19T14:00:42.885Z,101360.66
2022-08-19T14:03:09.928Z,101364.22
2022-08-19T14:05:37.840Z,101360.47
2022-08-19T14:08:06.792Z,101358.63
2022-08-19T14:10:34.416Z,101360.28
2022-08-19T14:13:08.909Z,101364.59
2022-08-19T14:15:35.370Z,101357.31
2022-08-19T14:18:02.257Z,101354.34
2022-08-19T14:20:28.908Z,101353.38
2022-08-19T14:22:55.974Z,101353.09
2022-08-19T14:25:25.648Z,101352.13
2022-08-19T14:27:52.436Z,101360.94
2022-08-19T14:30:24.129Z,101356.28
2022-08-19T14:32:50.537Z,101353.81
2022-08-19T14:35:17.466Z,101356.56
2022-08-19T14:37:56.305Z,101358.63
2022-08-19T14:40:26.905Z,101360.59
2022-08-19T14:43:00.098Z,101351.50
2022-08-19T14:45:31.025Z,101343.72
2022-08-19T14:48:00.883Z,101348.56
2022-08-19T14:50:27.735Z,101352.72
2022-08-19T14:53:09.097Z,101352.00
2022-08-19T14:55:45.741Z,101343.50
2022-08-19T14:58:29.312Z,101346.81
2022-08-19T15:00:59.886Z,101349.03
2022-08-19T15:03:27.235Z,101348.16
2022-08-19T15:05:56.184Z,101349.97
2022-08-19T15:08:25.629Z,101346.50
2022-08-19T15:10:53.059Z,101354.84
2022-08-19T15:13:19.627Z,101350.00
2022-08-19T15:15:49.034Z,101350.06
2022-08-19T15:18:17.890Z,101351.03
2022-08-19T15:20:46.729Z,101343.16
2022-08-19T15:23:17.654Z,101348.19
2022-08-19T15:25:44.353Z,101342.22
2022-08-19T15:28:14.273Z,101350.50
2022-08-19T15:30:41.194Z,101349.94
2022-08-19T15:33:08.493Z,101352.94
2022-08-19T15:35:34.895Z,101348.78
2022-08-19T15:38:01.777Z,101348.03
2022-08-19T15:40:48.771Z,101349.91
2022-08-19T15:43:16.554Z,101354.84
2022-08-19T15:45:49.290Z,101358.50
2022-08-19T15:48:17.764Z,101365.03
2022-08-19T15:50:44.134Z,101370.00
2022-08-19T15:53:11.627Z,101376.28
2022-08-19T15:55:45.548Z,101375.50
2022-08-19T15:58:32.862Z,101376.31
2022-08-19T16:01:23.961Z,101394.88
2022-08-19T16:04:14.776Z,101385.13
2022-08-19T16:06:46.740Z,101388.53
2022-08-19T16:09:17.260Z,101391.69
2022-08-19T16:11:45.983Z,101384.25
2022-08-19T16:14:14.758Z,101395.22
2022-08-19T16:16:47.189Z,101408.97
2022-08-19T16:19:16.236Z,101390.47
2022-08-19T16:21:45.805Z,101392.44
2022-08-19T16:24:13.975Z,101391.66
2022-08-19T16:26:42.686Z,101389.84
2022-08-19T16:29:12.141Z,101395.78
2022-08-19T16:31:44.470Z,101389.31
2022-08-19T16:34:15.610Z,101393.75
2022-08-19T16:36:43.390Z,101394.69
2022-08-19T16:39:12.221Z,101386.63
2022-08-19T16:41:40.531Z,101388.31
2022-08-19T16:44:07.801Z,101389.16
2022-08-19T16:46:37.257Z,101389.16
2022-08-19T16:49:05.019Z,101393.53
2022-08-19T16:51:33.725Z,101402.41
2022-08-19T16:54:02.067Z,101394.41
2022-08-19T16:56:29.545Z,101392.69
2022-08-19T16:58:56.165Z,101389.03
2022-08-19T17:01:22.703Z,101392.47
2022-08-19T17:03:51.926Z,101381.69
2022-08-19T17:06:21.434Z,101388.00
2022-08-19T17:08:49.991Z,101381.94
2022-08-19T17:11:19.064Z,101383.78
2022-08-19T17:13:47.553Z,101388.22
2022-08-19T17:16:19.892Z,101388.03
2022-08-19T17:18:46.311Z,101381.63
2022-08-19T17:21:13.078Z,101378.75
2022-08-19T17:23:42.885Z,101382.09
2022-08-19T17:26:16.877Z,101380.31
2022-08-19T17:28:50.386Z,101380.31
2022-08-19T17:31:18.747Z,101377.75
2022-08-19T17:33:48.488Z,101383.28
2022-08-19T17:36:23.500Z,101386.09
2022-08-19T17:38:51.194Z,101386.22
2022-08-19T17:41:17.579Z,101392.81
2022-08-19T17:43:44.307Z,101390.25
2022-08-19T17:46:17.672Z,101397.44
2022-08-19T17:48:51.505Z,101399.50
2022-08-19T17:51:42.098Z,101407.66
2022-08-19T17:54:15.654Z,101412.38
2022-08-19T17:56:43.477Z,101418.72
2022-08-19T17:59:13.741Z,101411.59
2022-08-19T18:01:52.643Z,101408.88
2022-08-19T18:04:21.997Z,101407.16
2022-08-19T18:06:53.640Z,101411.78
2022-08-19T18:09:23.799Z,101413.75
2022-08-19T18:11:52.744Z,101410.25
2022-08-19T18:14:20.866Z,101415.56
2022-08-19T18:16:47.324Z,101413.69
2022-08-19T18:19:13.731Z,101420.09
2022-08-19T18:21:40.757Z,101415.75
2022-08-19T18:24:07.702Z,101416.75
2022-08-19T18:26:34.804Z,101418.56
2022-08-19T18:29:01.781Z,101419.50
2022-08-19T18:31:28.997Z,101424.16
2022-08-19T18:33:55.498Z,101421.50
2022-08-19T18:36:50.181Z,101426.88
2022-08-19T18:39:29.205Z,101419.97
2022-08-19T18:42:14.351Z,101430.97
2022-08-19T18:45:00.049Z,101440.97
2022-08-19T18:47:45.336Z,101452.50
2022-08-19T18:50:15.212Z,101448.78
2022-08-19T18:52:43.139Z,101450.53
2022-08-19T18:55:09.763Z,101468.50
2022-08-19T18:57:36.150Z,101456.09
2022-08-19T19:00:04.554Z,101469.41
2022-08-19T19:02:38.503Z,101472.16
2022-08-19T19:05:07.587Z,101471.41
2022-08-19T19:07:34.616Z,101472.59
2022-08-19T19:10:01.003Z,101474.63
2022-08-19T19:12:30.652Z,101472.91
2022-08-19T19:14:58.668Z,101496.13
2022-08-19T19:17:28.522Z,101499.06
2022-08-19T19:19:55.278Z,101501.06
2022-08-19T19:22:23.437Z,101507.44
2022-08-19T19:24:50.772Z,101503.13
2022-08-19T19:27:20.842Z,101502.28
2022-08-19T19:29:52.340Z,101507.53
2022-08-19T19:32:28.524Z,101512.88
2022-08-19T19:34:55.558Z,101512.06
2022-08-19T19:37:22.510Z,101507.63
2022-08-19T19:39:49.074Z,101518.28
2022-08-19T19:42:23.837Z,101519.22
2022-08-19T19:44:55.554Z,101515.72
2022-08-19T19:47:27.657Z,101517.72
2022-08-19T19:52:45.442Z,101502.56
2022-08-19T19:55:17.711Z,101495.25
2022-08-19T19:57:48.860Z,101498.81
2022-08-19T20:00:22.567Z,101498.97
2022-08-19T20:02:50.911Z,101505.19
2022-08-19T20:05:20.695Z,101500.81
2022-08-19T20:08:08.462Z,101503.53
2022-08-19T20:10:35.239Z,101501.78
2022-08-19T20:13:02.888Z,101500.91
2022-08-19T20:15:31.260Z,101497.38
2022-08-19T20:17:59.721Z,101498.28
2022-08-19T20:20:26.610Z,101501.16
2022-08-19T20:22:57.064Z,101508.47
2022-08-19T20:25:24.235Z,101514.09
2022-08-19T20:27:51.338Z,101511.53
2022-08-19T20:30:21.587Z,101508.03
2022-08-19T20:32:50.371Z,101509.00
2022-08-19T20:35:20.965Z,101512.63
2022-08-19T20:37:47.981Z,101509.91
2022-08-19T20:40:16.476Z,101502.75
2022-08-19T20:42:48.208Z,101508.03
2022-08-19T20:45:33.292Z,101503.50
2022-08-19T20:48:02.667Z,101507.97
2022-08-19T20:50:32.348Z,101502.69
2022-08-19T20:52:59.255Z,101509.91
2022-08-19T20:55:26.588Z,101507.13
2022-08-19T20:57:53.470Z,101508.88
2022-08-19T21:00:20.233Z,101503.59
2022-08-19T21:02:47.008Z,101507.06
2022-08-19T21:05:13.735Z,101505.22
2022-08-19T21:07:40.238Z,101506.16
2022-08-19T21:10:08.954Z,101504.38
2022-08-19T21:12:35.673Z,101504.41
2022-08-19T21:15:02.353Z,101501.72
2022-08-19T21:17:28.707Z,101502.66
2022-08-19T21:19:58.462Z,101504.38
2022-08-19T21:22:25.931Z,101505.22
2022-08-19T21:24:57.870Z,101504.28
2022-08-19T21:27:24.309Z,101502.47
2022-08-19T21:29:51.754Z,101508.66
2022-08-19T21:32:19.684Z,101516.59
2022-08-19T21:34:46.898Z,101512.16
2022-08-19T21:37:19.043Z,101509.50
2022-08-19T21:39:53.080Z,101518.41
2022-08-19T21:42:19.625Z,101513.00
2022-08-19T21:44:46.206Z,101513.88
2022-08-19T21:47:13.093Z,101505.94
2022-08-19T21:49:39.968Z,101498.88
2022-08-19T21:52:09.056Z,101501.56
2022-08-19T21:54:38.028Z,101495.28
2022-08-19T21:57:10.484Z,101502.38
2022-08-19T21:59:39.702Z,101504.19
2022-08-19T22:02:21.510Z,101513.06
2022-08-19T22:04:52.625Z,101506.91
2022-08-19T22:07:22.531Z,101509.63
2022-08-19T22:09:51.713Z,101506.25
2022-08-19T22:12:29.133Z,101513.31
2022-08-19T22:14:56.739Z,101513.31
2022-08-19T22:17:24.445Z,101512.41
2022-08-19T22:19:54.916Z,101502.63
2022-08-19T22:22:30.538Z,101504.38
2022-08-19T22:25:05.720Z,101506.09
2022-08-19T22:27:32.731Z,101505.16
2022-08-19T22:30:03.972Z,101515.84
2022-08-19T22:32:31.011Z,101514.13
2022-08-19T22:34:59.137Z,101510.59
2022-08-19T22:37:27.456Z,101513.31
2022-08-19T22:39:56.055Z,101516.88
2022-08-19T22:42:22.474Z,101516.97
2022-08-19T22:44:49.176Z,101513.34
2022-08-19T22:47:16.382Z,101513.34
2022-08-19T22:49:44.148Z,101504.50
2022-08-19T22:52:20.369Z,101508.03
2022-08-19T22:55:01.543Z,101509.00
2022-08-19T22:57:28.470Z,101509.97
2022-08-19T22:59:56.908Z,101509.16
2022-08-19T23:02:51.888Z,101510.94
2022-08-19T23:05:21.903Z,101510.19
2022-08-19T23:07:52.499Z,101514.69
2022-08-19T23:10:26.658Z,101524.59
2022-08-19T23:12:59.280Z,101521.91
2022-08-19T23:15:29.995Z,101524.66
2022-08-19T23:17:59.597Z,101521.97
2022-08-19T23:20:29.547Z,101519.28
2022-08-19T23:22:57.105Z,101516.63
2022-08-19T23:25:27.666Z,101519.38
2022-08-19T23:28:13.381Z,101514.94
2022-08-19T23:30:44.557Z,101522.16
2022-08-19T23:33:21.642Z,101539.94
2022-08-19T23:35:48.492Z,101534.59
2022-08-19T23:38:14.887Z,101526.66
2022-08-19T23:40:41.286Z,101519.53
2022-08-19T23:43:09.773Z,101520.38
2022-08-19T23:45:40.696Z,101521.22
2022-08-19T23:48:17.864Z,101523.03
2022-08-19T23:50:47.486Z,101527.50
2022-08-19T23:53:15.052Z,101524.84
2022-08-19T23:55:44.643Z,101513.28
2022-08-19T23:58:11.486Z,101510.66
